tititudorancea.com
Station Historical Data
Daily Summary for November 4, 2018 Units:  Both    English   Metric
« Previous Day
Next Day »
Daily Weekly Monthly Yearly Custom
  High: Low: Average:
Temperature: TemperatureF °F /  -17.8 °C 38.8 °F /  3.8 °C 55.3 °F /  12.9 °C
Dew Point: DewpointF °F /  -17.8 °C 36.7 °F /  2.6 °C 44.5 °F /  6.9 °C
Humidity: Humidity % 46 % 70 %
Wind Speed: WindSpeedMPH mph /  0 km/h - 5.2 mph /  8.4 km/h
Wind Gust: WindSpeedGustMPH mph /  0 km/h - -
Wind:- - WNW
Pressure: PressureIn in /  0 hPa 29.77 in /  1008 hPa -
Precipitation: 0.00 in /  0 mm    
Historical Graphs
 
 
Ararat weather Find more about Weather in Ararat, AU


 



 


Tabular Data for November 4, 2018
Time Temperature Dew Point Pressure Wind Wind Speed Wind Gust Humidity Rainfall Rate (Hourly)
TemperatureF °F /  -17.8 °C DewpointF °F /  -17.8 °C PressureIn in /  0 hPa Calm     Humidity % HourlyPrecipIn in /  0 mm
00:04 46.0 °F /  7.8 °C 42.6 °F /  5.9 °C 30.02 in /  1016.5 hPa Calm     88 % 0.00 in /  0 mm
00:09 45.8 °F /  7.7 °C 42.4 °F /  5.8 °C 30.01 in /  1016.1 hPa Calm     88 % 0.00 in /  0 mm
00:14 45.7 °F /  7.6 °C 42.6 °F /  5.9 °C 30.01 in /  1016.1 hPa Calm     89 % 0.00 in /  0 mm
00:19 45.6 °F /  7.6 °C 42.5 °F /  5.8 °C 30.02 in /  1016.5 hPa Calm     89 % 0.00 in /  0 mm
00:24 45.7 °F /  7.6 °C 42.6 °F /  5.9 °C 30.02 in /  1016.5 hPa SSW 3.5 mph /  5.6 km/h 1.9 mph /  3.1 km/h 89 % 0.00 in /  0 mm
00:29 45.7 °F /  7.6 °C 42.6 °F /  5.9 °C 30.02 in /  1016.5 hPa SSW 2.3 mph /  3.7 km/h 0.6 mph /  1 km/h 89 % 0.00 in /  0 mm
00:34 45.7 °F /  7.6 °C 42.6 °F /  5.9 °C 30.02 in /  1016.5 hPa SSW 2.3 mph /  3.7 km/h 0.7 mph /  1.1 km/h 89 % 0.00 in /  0 mm
00:39 45.6 °F /  7.6 °C 42.5 °F /  5.8 °C 30.02 in /  1016.5 hPa Calm     89 % 0.00 in /  0 mm
00:44 45.4 °F /  7.4 °C 42.3 °F /  5.7 °C 30.02 in /  1016.5 hPa Calm     89 % 0.00 in /  0 mm
00:49 45.1 °F /  7.3 °C 42.1 °F /  5.6 °C 30.02 in /  1016.5 hPa Calm     89 % 0.00 in /  0 mm
00:54 45.0 °F /  7.2 °C 42.2 °F /  5.7 °C 30.02 in /  1016.5 hPa Calm     90 % 0.00 in /  0 mm
00:59 44.8 °F /  7.1 °C 41.8 °F /  5.4 °C 30.01 in /  1016.1 hPa Calm     89 % 0.00 in /  0 mm
01:04 44.6 °F /  7 °C 41.8 °F /  5.4 °C 30.01 in /  1016.1 hPa Calm     90 % 0.00 in /  0 mm
01:09 44.5 °F /  6.9 °C 41.7 °F /  5.4 °C 30.01 in /  1016.1 hPa Calm     90 % 0.00 in /  0 mm
01:14 44.5 °F /  6.9 °C 41.7 °F /  5.4 °C 30.01 in /  1016.1 hPa Calm     90 % 0.00 in /  0 mm
01:19 44.6 °F /  7 °C 41.8 °F /  5.4 °C 30.01 in /  1016.1 hPa Calm     90 % 0.00 in /  0 mm
01:24 44.8 °F /  7.1 °C 42.3 °F /  5.7 °C 30.01 in /  1016.1 hPa Calm     91 % 0.00 in /  0 mm
01:29 44.9 °F /  7.2 °C 42.4 °F /  5.8 °C 30.00 in /  1015.8 hPa Calm     91 % 0.00 in /  0 mm
01:34 44.8 °F /  7.1 °C 42.3 °F /  5.7 °C 30.00 in /  1015.8 hPa Calm     91 % 0.00 in /  0 mm
01:39 44.4 °F /  6.9 °C 41.7 °F /  5.4 °C 30.00 in /  1015.8 hPa Calm     90 % 0.00 in /  0 mm
01:44 44.3 °F /  6.8 °C 41.8 °F /  5.4 °C 29.99 in /  1015.5 hPa Calm     91 % 0.00 in /  0 mm
01:49 44.2 °F /  6.8 °C 41.5 °F /  5.3 °C 29.98 in /  1015.1 hPa Calm     90 % 0.00 in /  0 mm
01:54 43.9 °F /  6.6 °C 41.2 °F /  5.1 °C 29.98 in /  1015.1 hPa Calm     90 % 0.00 in /  0 mm
01:59 43.6 °F /  6.4 °C 40.9 °F /  4.9 °C 29.98 in /  1015.1 hPa Calm     90 % 0.00 in /  0 mm
02:04 43.3 °F /  6.3 °C 40.6 °F /  4.8 °C 29.98 in /  1015.1 hPa Calm     90 % 0.00 in /  0 mm
02:09 43.1 °F /  6.2 °C 40.7 °F /  4.8 °C 29.97 in /  1014.8 hPa Calm     91 % 0.00 in /  0 mm
02:14 42.9 °F /  6.1 °C 40.2 °F /  4.6 °C 29.97 in /  1014.8 hPa Calm     90 % 0.00 in /  0 mm
02:19 42.8 °F /  6 °C 40.4 °F /  4.7 °C 29.96 in /  1014.4 hPa Calm     91 % 0.00 in /  0 mm
02:24 42.8 °F /  6 °C 40.4 °F /  4.7 °C 29.97 in /  1014.8 hPa Calm     91 % 0.00 in /  0 mm
02:29 42.5 °F /  5.8 °C 40.1 °F /  4.5 °C 29.97 in /  1014.8 hPa Calm     91 % 0.00 in /  0 mm
02:34 42.3 °F /  5.7 °C 39.9 °F /  4.4 °C 29.97 in /  1014.8 hPa Calm     91 % 0.00 in /  0 mm
02:39 42.1 °F /  5.6 °C 39.7 °F /  4.3 °C 29.97 in /  1014.8 hPa Calm     91 % 0.00 in /  0 mm
02:44 42.3 °F /  5.7 °C 40.1 °F /  4.5 °C 29.96 in /  1014.4 hPa Calm     92 % 0.00 in /  0 mm
02:49 42.4 °F /  5.8 °C 40.2 °F /  4.6 °C 29.96 in /  1014.4 hPa Calm     92 % 0.00 in /  0 mm
02:54 42.2 °F /  5.7 °C 39.8 °F /  4.3 °C 29.96 in /  1014.4 hPa Calm     91 % 0.00 in /  0 mm
02:59 42.1 °F /  5.6 °C 39.9 °F /  4.4 °C 29.96 in /  1014.4 hPa Calm     92 % 0.00 in /  0 mm
03:04 42.4 °F /  5.8 °C 40.2 °F /  4.6 °C 29.96 in /  1014.4 hPa Calm     92 % 0.00 in /  0 mm
03:09 42.6 °F /  5.9 °C 40.4 °F /  4.7 °C 29.96 in /  1014.4 hPa Calm     92 % 0.00 in /  0 mm
03:14 42.7 °F /  5.9 °C 40.5 °F /  4.7 °C 29.96 in /  1014.4 hPa Calm     92 % 0.00 in /  0 mm
03:19 42.6 °F /  5.9 °C 40.4 °F /  4.7 °C 29.96 in /  1014.4 hPa Calm     92 % 0.00 in /  0 mm
03:24 42.4 °F /  5.8 °C 40.2 °F /  4.6 °C 29.96 in /  1014.4 hPa Calm     92 % 0.00 in /  0 mm
03:29 42.0 °F /  5.6 °C 39.6 °F /  4.2 °C 29.96 in /  1014.4 hPa Calm     91 % 0.00 in /  0 mm
03:34 41.7 °F /  5.4 °C 39.5 °F /  4.2 °C 29.95 in /  1014.1 hPa Calm     92 % 0.00 in /  0 mm
03:39 41.5 °F /  5.3 °C 39.3 °F /  4.1 °C 29.95 in /  1014.1 hPa Calm     92 % 0.00 in /  0 mm
03:44 41.3 °F /  5.2 °C 39.2 °F /  4 °C 29.95 in /  1014.1 hPa Calm     92 % 0.00 in /  0 mm
03:49 41.1 °F /  5.1 °C 39.0 °F /  3.9 °C 29.95 in /  1014.1 hPa Calm     92 % 0.00 in /  0 mm
03:54 41.0 °F /  5 °C 38.9 °F /  3.8 °C 29.95 in /  1014.1 hPa Calm     92 % 0.00 in /  0 mm
03:59 40.9 °F /  4.9 °C 38.8 °F /  3.8 °C 29.95 in /  1014.1 hPa Calm     92 % 0.00 in /  0 mm
04:04 40.8 °F /  4.9 °C 38.7 °F /  3.7 °C 29.95 in /  1014.1 hPa Calm     92 % 0.00 in /  0 mm
04:09 40.8 °F /  4.9 °C 38.7 °F /  3.7 °C 29.95 in /  1014.1 hPa SSW 2.3 mph /  3.7 km/h 0.7 mph /  1.1 km/h 92 % 0.00 in /  0 mm
04:14 40.8 °F /  4.9 °C 38.7 °F /  3.7 °C 29.94 in /  1013.8 hPa Calm     92 % 0.00 in /  0 mm
04:19 40.5 °F /  4.7 °C 38.4 °F /  3.6 °C 29.94 in /  1013.8 hPa Calm     92 % 0.00 in /  0 mm
04:24 40.3 °F /  4.6 °C 38.2 °F /  3.4 °C 29.94 in /  1013.8 hPa Calm     92 % 0.00 in /  0 mm
04:29 40.0 °F /  4.4 °C 37.9 °F /  3.3 °C 29.94 in /  1013.8 hPa Calm     92 % 0.00 in /  0 mm
04:34 39.8 °F /  4.3 °C 37.7 °F /  3.2 °C 29.94 in /  1013.8 hPa Calm     92 % 0.00 in /  0 mm
04:39 39.5 °F /  4.2 °C 37.4 °F /  3 °C 29.93 in /  1013.4 hPa Calm     92 % 0.00 in /  0 mm
04:44 39.4 °F /  4.1 °C 37.3 °F /  2.9 °C 29.93 in /  1013.4 hPa Calm     92 % 0.00 in /  0 mm
04:49 39.1 °F /  3.9 °C 37.0 °F /  2.8 °C 29.93 in /  1013.4 hPa Calm     92 % 0.00 in /  0 mm
04:54 39.1 °F /  3.9 °C 37.0 °F /  2.8 °C 29.93 in /  1013.4 hPa Calm     92 % 0.00 in /  0 mm
04:59 39.0 °F /  3.9 °C 36.9 °F /  2.7 °C 29.92 in /  1013.1 hPa Calm     92 % 0.00 in /  0 mm
05:04 38.8 °F /  3.8 °C 36.7 °F /  2.6 °C 29.92 in /  1013.1 hPa Calm     92 % 0.00 in /  0 mm
05:09 38.8 °F /  3.8 °C 36.9 °F /  2.7 °C 29.91 in /  1012.8 hPa SSW 3.0 mph /  4.8 km/h 2.2 mph /  3.5 km/h 93 % 0.00 in /  0 mm
05:14 39.6 °F /  4.2 °C 38.0 °F /  3.3 °C 29.90 in /  1012.4 hPa North 3.5 mph /  5.6 km/h 2.3 mph /  3.7 km/h 94 % 0.00 in /  0 mm
05:19 40.0 °F /  4.4 °C 38.1 °F /  3.4 °C 29.91 in /  1012.8 hPa North 2.3 mph /  3.7 km/h 1.5 mph /  2.4 km/h 93 % 0.00 in /  0 mm
05:24 40.4 °F /  4.7 °C 38.8 °F /  3.8 °C 29.91 in /  1012.8 hPa SSW 3.5 mph /  5.6 km/h 2.2 mph /  3.5 km/h 94 % 0.00 in /  0 mm
05:29 40.8 °F /  4.9 °C 39.2 °F /  4 °C 29.92 in /  1013.1 hPa North 4.0 mph /  6.4 km/h 2.9 mph /  4.7 km/h 94 % 0.00 in /  0 mm
05:34 41.2 °F /  5.1 °C 39.6 °F /  4.2 °C 29.93 in /  1013.4 hPa SSW 3.5 mph /  5.6 km/h 2.5 mph /  4 km/h 94 % 0.00 in /  0 mm
05:39 41.3 °F /  5.2 °C 39.7 °F /  4.3 °C 29.93 in /  1013.4 hPa Calm     94 % 0.00 in /  0 mm
05:44 41.5 °F /  5.3 °C 39.9 °F /  4.4 °C 29.93 in /  1013.4 hPa Calm     94 % 0.00 in /  0 mm
05:49 41.7 °F /  5.4 °C 40.1 °F /  4.5 °C 29.93 in /  1013.4 hPa Calm     94 % 0.00 in /  0 mm
05:54 41.7 °F /  5.4 °C 39.8 °F /  4.3 °C 29.93 in /  1013.4 hPa Calm     93 % 0.00 in /  0 mm
05:59 41.7 °F /  5.4 °C 40.1 °F /  4.5 °C 29.93 in /  1013.4 hPa Calm     94 % 0.00 in /  0 mm
06:04 41.7 °F /  5.4 °C 39.8 °F /  4.3 °C 29.93 in /  1013.4 hPa Calm     93 % 0.00 in /  0 mm
06:09 41.6 °F /  5.3 °C 39.7 °F /  4.3 °C 29.92 in /  1013.1 hPa North 2.3 mph /  3.7 km/h 1.9 mph /  3.1 km/h 93 % 0.00 in /  0 mm
06:14 41.3 °F /  5.2 °C 39.4 °F /  4.1 °C 29.92 in /  1013.1 hPa Calm     93 % 0.00 in /  0 mm
06:19 41.0 °F /  5 °C 39.1 °F /  3.9 °C 29.92 in /  1013.1 hPa SSW 3.0 mph /  4.8 km/h 2.0 mph /  3.2 km/h 93 % 0.00 in /  0 mm
06:24 40.8 °F /  4.9 °C 38.9 °F /  3.8 °C 29.93 in /  1013.4 hPa Calm     93 % 0.00 in /  0 mm
06:29 40.6 °F /  4.8 °C 38.7 °F /  3.7 °C 29.92 in /  1013.1 hPa SSW 2.3 mph /  3.7 km/h 0.7 mph /  1.1 km/h 93 % 0.00 in /  0 mm
06:34 40.5 °F /  4.7 °C 38.6 °F /  3.7 °C 29.92 in /  1013.1 hPa SSW 3.5 mph /  5.6 km/h 1.5 mph /  2.4 km/h 93 % 0.00 in /  0 mm
06:39 41.0 °F /  5 °C 39.4 °F /  4.1 °C 29.92 in /  1013.1 hPa North 3.5 mph /  5.6 km/h 2.1 mph /  3.4 km/h 94 % 0.00 in /  0 mm
06:44 41.4 °F /  5.2 °C 39.8 °F /  4.3 °C 29.92 in /  1013.1 hPa SSW 3.5 mph /  5.6 km/h 3.0 mph /  4.8 km/h 94 % 0.00 in /  0 mm
06:49 41.7 °F /  5.4 °C 40.1 °F /  4.5 °C 29.92 in /  1013.1 hPa SSW 3.5 mph /  5.6 km/h 2.3 mph /  3.7 km/h 94 % 0.00 in /  0 mm
06:54 41.9 °F /  5.5 °C 40.3 °F /  4.6 °C 29.92 in /  1013.1 hPa SSW 2.3 mph /  3.7 km/h 0.4 mph /  0.6 km/h 94 % 0.00 in /  0 mm
06:59 42.2 °F /  5.7 °C 40.6 °F /  4.8 °C 29.93 in /  1013.4 hPa SSW 3.5 mph /  5.6 km/h 1.9 mph /  3.1 km/h 94 % 0.00 in /  0 mm
07:04 42.5 °F /  5.8 °C 40.9 °F /  4.9 °C 29.92 in /  1013.1 hPa Calm     94 % 0.00 in /  0 mm
07:09 42.8 °F /  6 °C 41.2 °F /  5.1 °C 29.92 in /  1013.1 hPa SSW 2.3 mph /  3.7 km/h 1.1 mph /  1.8 km/h 94 % 0.00 in /  0 mm
07:14 43.2 °F /  6.2 °C 41.9 °F /  5.5 °C 29.92 in /  1013.1 hPa SSW 3.5 mph /  5.6 km/h 2.1 mph /  3.4 km/h 95 % 0.00 in /  0 mm
07:19 43.7 °F /  6.5 °C 42.4 °F /  5.8 °C 29.92 in /  1013.1 hPa SSW 2.3 mph /  3.7 km/h 1.4 mph /  2.3 km/h 95 % 0.00 in /  0 mm
07:24 44.2 °F /  6.8 °C 42.9 °F /  6.1 °C 29.92 in /  1013.1 hPa SSW 3.5 mph /  5.6 km/h 1.7 mph /  2.7 km/h 95 % 0.00 in /  0 mm
07:29 44.4 °F /  6.9 °C 42.8 °F /  6 °C 29.93 in /  1013.4 hPa SSW 3.5 mph /  5.6 km/h 2.2 mph /  3.5 km/h 94 % 0.00 in /  0 mm
07:34 44.6 °F /  7 °C 43.0 °F /  6.1 °C 29.93 in /  1013.4 hPa SSW 2.0 mph /  3.2 km/h 0.5 mph /  0.8 km/h 94 % 0.00 in /  0 mm
07:39 45.0 °F /  7.2 °C 43.7 °F /  6.5 °C 29.92 in /  1013.1 hPa North 3.5 mph /  5.6 km/h 2.4 mph /  3.9 km/h 95 % 0.00 in /  0 mm
07:44 45.4 °F /  7.4 °C 43.8 °F /  6.6 °C 29.93 in /  1013.4 hPa SSW 5.0 mph /  8 km/h 3.3 mph /  5.3 km/h 94 % 0.00 in /  0 mm
07:49 45.5 °F /  7.5 °C 43.9 °F /  6.6 °C 29.92 in /  1013.1 hPa SSW 4.6 mph /  7.4 km/h 2.2 mph /  3.5 km/h 94 % 0.00 in /  0 mm
07:54 45.8 °F /  7.7 °C 44.2 °F /  6.8 °C 29.93 in /  1013.4 hPa SSW 1.2 mph /  1.9 km/h 0.3 mph /  0.5 km/h 94 % 0.00 in /  0 mm
07:59 46.3 °F /  7.9 °C 44.7 °F /  7.1 °C 29.93 in /  1013.4 hPa SSW 2.3 mph /  3.7 km/h 2.0 mph /  3.2 km/h 94 % 0.00 in /  0 mm
08:04 47.0 °F /  8.3 °C 45.4 °F /  7.4 °C 29.93 in /  1013.4 hPa SSW 5.0 mph /  8 km/h 3.6 mph /  5.8 km/h 94 % 0.00 in /  0 mm
08:09 47.7 °F /  8.7 °C 46.1 °F /  7.8 °C 29.93 in /  1013.4 hPa WSW 7.0 mph /  11.3 km/h 5.6 mph /  9 km/h 94 % 0.00 in /  0 mm
08:14 48.1 °F /  8.9 °C 46.2 °F /  7.9 °C 29.93 in /  1013.4 hPa North 8.1 mph /  13 km/h 7.0 mph /  11.3 km/h 93 % 0.00 in /  0 mm
08:19 48.4 °F /  9.1 °C 45.9 °F /  7.7 °C 29.93 in /  1013.4 hPa North 9.2 mph /  14.8 km/h 5.0 mph /  8 km/h 91 % 0.00 in /  0 mm
08:24 48.6 °F /  9.2 °C 46.1 °F /  7.8 °C 29.93 in /  1013.4 hPa NNW 8.1 mph /  13 km/h 5.0 mph /  8 km/h 91 % 0.00 in /  0 mm
08:29 48.9 °F /  9.4 °C 46.1 °F /  7.8 °C 29.93 in /  1013.4 hPa NNW 9.2 mph /  14.8 km/h 7.0 mph /  11.3 km/h 90 % 0.00 in /  0 mm
08:34 49.3 °F /  9.6 °C 46.2 °F /  7.9 °C 29.93 in /  1013.4 hPa North 9.2 mph /  14.8 km/h 3.8 mph /  6.1 km/h 89 % 0.00 in /  0 mm
08:39 49.5 °F /  9.7 °C 46.1 °F /  7.8 °C 29.94 in /  1013.8 hPa North 10.4 mph /  16.7 km/h 7.2 mph /  11.6 km/h 88 % 0.00 in /  0 mm
08:44 49.6 °F /  9.8 °C 46.2 °F /  7.9 °C 29.94 in /  1013.8 hPa NNW 8.1 mph /  13 km/h 8.1 mph /  13 km/h 88 % 0.00 in /  0 mm
08:49 50.5 °F /  10.3 °C 47.1 °F /  8.4 °C 29.94 in /  1013.8 hPa North 8.1 mph /  13 km/h 4.7 mph /  7.6 km/h 88 % 0.00 in /  0 mm
08:54 51.0 °F /  10.6 °C 47.0 °F /  8.3 °C 29.94 in /  1013.8 hPa NNW 8.1 mph /  13 km/h 6.0 mph /  9.7 km/h 86 % 0.00 in /  0 mm
08:59 51.6 °F /  10.9 °C 47.2 °F /  8.4 °C 29.94 in /  1013.8 hPa NNW 12.7 mph /  20.4 km/h 6.2 mph /  10 km/h 85 % 0.00 in /  0 mm
09:04 52.2 °F /  11.2 °C 47.5 °F /  8.6 °C 29.94 in /  1013.8 hPa NNW 6.9 mph /  11.1 km/h 5.9 mph /  9.5 km/h 84 % 0.00 in /  0 mm
09:09 52.6 °F /  11.4 °C 47.6 °F /  8.7 °C 29.93 in /  1013.4 hPa NNW 6.0 mph /  9.7 km/h 4.4 mph /  7.1 km/h 83 % 0.00 in /  0 mm
09:14 53.0 °F /  11.7 °C 47.7 °F /  8.7 °C 29.93 in /  1013.4 hPa NNW 9.2 mph /  14.8 km/h 6.6 mph /  10.6 km/h 82 % 0.00 in /  0 mm
09:19 53.1 °F /  11.7 °C 47.4 °F /  8.6 °C 29.93 in /  1013.4 hPa NNW 11.5 mph /  18.5 km/h 8.9 mph /  14.3 km/h 81 % 0.00 in /  0 mm
09:24 53.6 °F /  12 °C 47.9 °F /  8.8 °C 29.93 in /  1013.4 hPa North 11.5 mph /  18.5 km/h 7.6 mph /  12.2 km/h 81 % 0.00 in /  0 mm
09:29 53.7 °F /  12.1 °C 47.3 °F /  8.5 °C 29.93 in /  1013.4 hPa NNW 13.8 mph /  22.2 km/h 9.4 mph /  15.1 km/h 79 % 0.00 in /  0 mm
09:34 54.5 °F /  12.5 °C 48.1 °F /  8.9 °C 29.93 in /  1013.4 hPa North 11.5 mph /  18.5 km/h 6.4 mph /  10.3 km/h 79 % 0.00 in /  0 mm
09:39 55.0 °F /  12.8 °C 47.9 °F /  8.8 °C 29.94 in /  1013.8 hPa NW 16.0 mph /  25.7 km/h 8.8 mph /  14.2 km/h 77 % 0.00 in /  0 mm
09:44 55.0 °F /  12.8 °C 47.6 °F /  8.7 °C 29.93 in /  1013.4 hPa NNW 11.5 mph /  18.5 km/h 8.2 mph /  13.2 km/h 76 % 0.00 in /  0 mm
09:49 55.5 °F /  13.1 °C 47.7 °F /  8.7 °C 29.94 in /  1013.8 hPa NNW 12.7 mph /  20.4 km/h 6.8 mph /  10.9 km/h 75 % 0.00 in /  0 mm
09:54 55.6 °F /  13.1 °C 48.2 °F /  9 °C 29.94 in /  1013.8 hPa North 10.4 mph /  16.7 km/h 5.8 mph /  9.3 km/h 76 % 0.00 in /  0 mm
09:59 55.8 °F /  13.2 °C 47.6 °F /  8.7 °C 29.94 in /  1013.8 hPa NNW 9.2 mph /  14.8 km/h 6.1 mph /  9.8 km/h 74 % 0.00 in /  0 mm
10:04 55.9 °F /  13.3 °C 47.4 °F /  8.6 °C 29.94 in /  1013.8 hPa North 11.0 mph /  17.7 km/h 6.4 mph /  10.3 km/h 73 % 0.00 in /  0 mm
10:09 55.8 °F /  13.2 °C 47.6 °F /  8.7 °C 29.93 in /  1013.4 hPa North 10.4 mph /  16.7 km/h 9.4 mph /  15.1 km/h 74 % 0.00 in /  0 mm
10:14 56.2 °F /  13.4 °C 47.7 °F /  8.7 °C 29.92 in /  1013.1 hPa North 10.4 mph /  16.7 km/h 7.0 mph /  11.3 km/h 73 % 0.00 in /  0 mm
10:19 56.5 °F /  13.6 °C 47.6 °F /  8.7 °C 29.93 in /  1013.4 hPa North 15.0 mph /  24.1 km/h 9.0 mph /  14.5 km/h 72 % 0.00 in /  0 mm
10:24 56.8 °F /  13.8 °C 47.5 °F /  8.6 °C 29.93 in /  1013.4 hPa North 11.5 mph /  18.5 km/h 8.4 mph /  13.5 km/h 71 % 0.00 in /  0 mm
10:29 57.2 °F /  14 °C 47.5 °F /  8.6 °C 29.92 in /  1013.1 hPa NNE 12.7 mph /  20.4 km/h 8.4 mph /  13.5 km/h 70 % 0.00 in /  0 mm
10:34 57.8 °F /  14.3 °C 48.1 °F /  8.9 °C 29.92 in /  1013.1 hPa NNE 13.0 mph /  20.9 km/h 6.4 mph /  10.3 km/h 70 % 0.00 in /  0 mm
10:39 58.1 °F /  14.5 °C 47.2 °F /  8.4 °C 29.92 in /  1013.1 hPa North 12.7 mph /  20.4 km/h 7.6 mph /  12.2 km/h 67 % 0.00 in /  0 mm
10:44 57.9 °F /  14.4 °C 47.0 °F /  8.3 °C 29.93 in /  1013.4 hPa North 10.4 mph /  16.7 km/h 8.2 mph /  13.2 km/h 67 % 0.00 in /  0 mm
10:49 58.1 °F /  14.5 °C 47.2 °F /  8.4 °C 29.92 in /  1013.1 hPa NNW 11.5 mph /  18.5 km/h 6.2 mph /  10 km/h 67 % 0.00 in /  0 mm
10:54 58.3 °F /  14.6 °C 46.6 °F /  8.1 °C 29.92 in /  1013.1 hPa NNW 12.7 mph /  20.4 km/h 6.5 mph /  10.5 km/h 65 % 0.00 in /  0 mm
10:59 58.4 °F /  14.7 °C 47.1 °F /  8.4 °C 29.92 in /  1013.1 hPa NNW 11.5 mph /  18.5 km/h 6.5 mph /  10.5 km/h 66 % 0.00 in /  0 mm
11:04 58.6 °F /  14.8 °C 46.9 °F /  8.3 °C 29.92 in /  1013.1 hPa NW 10.0 mph /  16.1 km/h 6.3 mph /  10.1 km/h 65 % 0.00 in /  0 mm
11:09 58.4 °F /  14.7 °C 46.7 °F /  8.2 °C 29.92 in /  1013.1 hPa North 16.1 mph /  25.9 km/h 7.4 mph /  11.9 km/h 65 % 0.00 in /  0 mm
11:14 58.4 °F /  14.7 °C 46.7 °F /  8.2 °C 29.92 in /  1013.1 hPa NNW 12.0 mph /  19.3 km/h 9.3 mph /  15 km/h 65 % 0.00 in /  0 mm
11:19 58.8 °F /  14.9 °C 47.1 °F /  8.4 °C 29.93 in /  1013.4 hPa NW 16.1 mph /  25.9 km/h 9.2 mph /  14.8 km/h 65 % 0.00 in /  0 mm
11:24 59.1 °F /  15.1 °C 47.3 °F /  8.5 °C 29.92 in /  1013.1 hPa NW 12.7 mph /  20.4 km/h 8.5 mph /  13.7 km/h 65 % 0.00 in /  0 mm
11:29 59.3 °F /  15.2 °C 47.5 °F /  8.6 °C 29.92 in /  1013.1 hPa NNW 9.2 mph /  14.8 km/h 7.3 mph /  11.7 km/h 65 % 0.00 in /  0 mm
11:34 59.5 °F /  15.3 °C 47.3 °F /  8.5 °C 29.92 in /  1013.1 hPa North 11.5 mph /  18.5 km/h 4.3 mph /  6.9 km/h 64 % 0.00 in /  0 mm
11:39 60.1 °F /  15.6 °C 47.0 °F /  8.3 °C 29.92 in /  1013.1 hPa North 11.5 mph /  18.5 km/h 8.1 mph /  13 km/h 62 % 0.00 in /  0 mm
11:44 60.6 °F /  15.9 °C 47.5 °F /  8.6 °C 29.91 in /  1012.8 hPa North 19.6 mph /  31.5 km/h 8.0 mph /  12.9 km/h 62 % 0.00 in /  0 mm
11:49 61.1 °F /  16.2 °C 47.5 °F /  8.6 °C 29.91 in /  1012.8 hPa NW 11.5 mph /  18.5 km/h 9.2 mph /  14.8 km/h 61 % 0.00 in /  0 mm
11:54 60.7 °F /  15.9 °C 46.7 °F /  8.2 °C 29.91 in /  1012.8 hPa North 10.4 mph /  16.7 km/h 8.5 mph /  13.7 km/h 60 % 0.00 in /  0 mm
11:59 61.0 °F /  16.1 °C 47.0 °F /  8.3 °C 29.91 in /  1012.8 hPa North 10.4 mph /  16.7 km/h 7.2 mph /  11.6 km/h 60 % 0.00 in /  0 mm
12:04 61.2 °F /  16.2 °C 46.8 °F /  8.2 °C 29.91 in /  1012.8 hPa NW 10.0 mph /  16.1 km/h 7.9 mph /  12.7 km/h 59 % 0.00 in /  0 mm
12:09 61.4 °F /  16.3 °C 46.9 °F /  8.3 °C 29.91 in /  1012.8 hPa NNE 10.4 mph /  16.7 km/h 8.3 mph /  13.4 km/h 59 % 0.00 in /  0 mm
12:14 61.6 °F /  16.4 °C 46.7 °F /  8.2 °C 29.91 in /  1012.8 hPa North 12.7 mph /  20.4 km/h 6.8 mph /  10.9 km/h 58 % 0.00 in /  0 mm
12:19 61.8 °F /  16.6 °C 46.9 °F /  8.3 °C 29.91 in /  1012.8 hPa NW 9.2 mph /  14.8 km/h 8.0 mph /  12.9 km/h 58 % 0.00 in /  0 mm
12:24 62.2 °F /  16.8 °C 47.2 °F /  8.4 °C 29.91 in /  1012.8 hPa North 9.2 mph /  14.8 km/h 7.1 mph /  11.4 km/h 58 % 0.00 in /  0 mm
12:29 62.7 °F /  17.1 °C 47.2 °F /  8.4 °C 29.90 in /  1012.4 hPa NNW 10.4 mph /  16.7 km/h 6.2 mph /  10 km/h 57 % 0.00 in /  0 mm
12:34 63.3 °F /  17.4 °C 46.9 °F /  8.3 °C 29.90 in /  1012.4 hPa North 11.5 mph /  18.5 km/h 8.4 mph /  13.5 km/h 55 % 0.00 in /  0 mm
12:39 63.5 °F /  17.5 °C 46.6 °F /  8.1 °C 29.91 in /  1012.8 hPa North 10.4 mph /  16.7 km/h 8.3 mph /  13.4 km/h 54 % 0.00 in /  0 mm
12:44 62.9 °F /  17.2 °C 46.5 °F /  8.1 °C 29.91 in /  1012.8 hPa NW 12.7 mph /  20.4 km/h 7.6 mph /  12.2 km/h 55 % 0.00 in /  0 mm
12:49 62.8 °F /  17.1 °C 46.9 °F /  8.3 °C 29.91 in /  1012.8 hPa North 12.0 mph /  19.3 km/h 4.5 mph /  7.2 km/h 56 % 0.00 in /  0 mm
12:54 63.5 °F /  17.5 °C 47.0 °F /  8.3 °C 29.91 in /  1012.8 hPa North 12.7 mph /  20.4 km/h 7.2 mph /  11.6 km/h 55 % 0.00 in /  0 mm
12:59 64.2 °F /  17.9 °C 47.7 °F /  8.7 °C 29.90 in /  1012.4 hPa North 9.0 mph /  14.5 km/h 5.0 mph /  8 km/h 55 % 0.00 in /  0 mm
13:04 64.9 °F /  18.3 °C 47.4 °F /  8.6 °C 29.90 in /  1012.4 hPa NW 9.2 mph /  14.8 km/h 5.8 mph /  9.3 km/h 53 % 0.00 in /  0 mm
13:09 65.3 °F /  18.5 °C 47.2 °F /  8.4 °C 29.89 in /  1012.1 hPa NW 6.9 mph /  11.1 km/h 6.3 mph /  10.1 km/h 52 % 0.00 in /  0 mm
13:14 65.4 °F /  18.6 °C 47.3 °F /  8.5 °C 29.89 in /  1012.1 hPa NNE 13.8 mph /  22.2 km/h 10.9 mph /  17.5 km/h 52 % 0.00 in /  0 mm
13:19 65.2 °F /  18.4 °C 47.6 °F /  8.7 °C 29.89 in /  1012.1 hPa North 12.7 mph /  20.4 km/h 9.1 mph /  14.6 km/h 53 % 0.00 in /  0 mm
13:24 65.3 °F /  18.5 °C 47.7 °F /  8.7 °C 29.88 in /  1011.7 hPa North 9.2 mph /  14.8 km/h 5.5 mph /  8.9 km/h 53 % 0.00 in /  0 mm
13:29 65.5 °F /  18.6 °C 46.9 °F /  8.3 °C 29.89 in /  1012.1 hPa NW 12.7 mph /  20.4 km/h 10.0 mph /  16.1 km/h 51 % 0.00 in /  0 mm
13:34 64.7 °F /  18.2 °C 46.1 °F /  7.8 °C 29.88 in /  1011.7 hPa NW 6.9 mph /  11.1 km/h 5.9 mph /  9.5 km/h 51 % 0.00 in /  0 mm
13:39 65.2 °F /  18.4 °C 46.6 °F /  8.1 °C 29.88 in /  1011.7 hPa North 10.4 mph /  16.7 km/h 8.4 mph /  13.5 km/h 51 % 0.00 in /  0 mm
13:44 65.9 °F /  18.8 °C 47.3 °F /  8.5 °C 29.88 in /  1011.7 hPa NNW 10.4 mph /  16.7 km/h 6.2 mph /  10 km/h 51 % 0.00 in /  0 mm
13:49 66.7 °F /  19.3 °C 48.0 °F /  8.9 °C 29.88 in /  1011.7 hPa North 8.1 mph /  13 km/h 5.4 mph /  8.7 km/h 51 % 0.00 in /  0 mm
13:54 67.2 °F /  19.6 °C 46.8 °F /  8.2 °C 29.87 in /  1011.4 hPa NW 12.0 mph /  19.3 km/h 7.8 mph /  12.6 km/h 48 % 0.00 in /  0 mm
13:59 67.5 °F /  19.7 °C 46.6 °F /  8.1 °C 29.87 in /  1011.4 hPa North 11.5 mph /  18.5 km/h 6.9 mph /  11.1 km/h 47 % 0.00 in /  0 mm
14:04 67.8 °F /  19.9 °C 46.3 °F /  7.9 °C 29.87 in /  1011.4 hPa NNW 11.5 mph /  18.5 km/h 8.7 mph /  14 km/h 46 % 0.00 in /  0 mm
14:09 68.2 °F /  20.1 °C 46.6 °F /  8.1 °C 29.87 in /  1011.4 hPa NNW 15.0 mph /  24.1 km/h 8.5 mph /  13.7 km/h 46 % 0.00 in /  0 mm
14:14 67.2 °F /  19.6 °C 45.7 °F /  7.6 °C 29.87 in /  1011.4 hPa NNW 11.5 mph /  18.5 km/h 7.9 mph /  12.7 km/h 46 % 0.00 in /  0 mm
14:19 66.9 °F /  19.4 °C 46.6 °F /  8.1 °C 29.86 in /  1011.1 hPa NW 19.6 mph /  31.5 km/h 8.7 mph /  14 km/h 48 % 0.00 in /  0 mm
14:24 66.8 °F /  19.3 °C 46.5 °F /  8.1 °C 29.86 in /  1011.1 hPa North 11.5 mph /  18.5 km/h 7.7 mph /  12.4 km/h 48 % 0.00 in /  0 mm
14:29 66.8 °F /  19.3 °C 46.5 °F /  8.1 °C 29.86 in /  1011.1 hPa NNW 9.2 mph /  14.8 km/h 6.7 mph /  10.8 km/h 48 % 0.00 in /  0 mm
14:34 66.6 °F /  19.2 °C 46.3 °F /  7.9 °C 29.87 in /  1011.4 hPa NW 14.0 mph /  22.5 km/h 10.4 mph /  16.7 km/h 48 % 0.00 in /  0 mm
14:39 66.0 °F /  18.9 °C 46.3 °F /  7.9 °C 29.86 in /  1011.1 hPa North 13.0 mph /  20.9 km/h 10.8 mph /  17.4 km/h 49 % 0.00 in /  0 mm
14:44 66.3 °F /  19.1 °C 46.6 °F /  8.1 °C 29.85 in /  1010.7 hPa North 10.4 mph /  16.7 km/h 7.0 mph /  11.3 km/h 49 % 0.00 in /  0 mm
14:49 66.4 °F /  19.1 °C 46.1 °F /  7.8 °C 29.85 in /  1010.7 hPa North 11.5 mph /  18.5 km/h 4.9 mph /  7.9 km/h 48 % 0.00 in /  0 mm
14:54 66.5 °F /  19.2 °C 45.6 °F /  7.6 °C 29.85 in /  1010.7 hPa North 11.5 mph /  18.5 km/h 8.7 mph /  14 km/h 47 % 0.00 in /  0 mm
14:59 66.4 °F /  19.1 °C 46.7 °F /  8.2 °C 29.85 in /  1010.7 hPa North 7.0 mph /  11.3 km/h 5.4 mph /  8.7 km/h 49 % 0.00 in /  0 mm
15:04 66.3 °F /  19.1 °C 46.6 °F /  8.1 °C 29.84 in /  1010.4 hPa NNW 8.0 mph /  12.9 km/h 3.7 mph /  6 km/h 49 % 0.00 in /  0 mm
15:09 66.6 °F /  19.2 °C 46.3 °F /  7.9 °C 29.83 in /  1010 hPa NNW 6.9 mph /  11.1 km/h 6.2 mph /  10 km/h 48 % 0.00 in /  0 mm
15:14 66.5 °F /  19.2 °C 46.2 °F /  7.9 °C 29.84 in /  1010.4 hPa North 10.4 mph /  16.7 km/h 7.3 mph /  11.7 km/h 48 % 0.00 in /  0 mm
15:19 66.5 °F /  19.2 °C 46.7 °F /  8.2 °C 29.84 in /  1010.4 hPa North 9.0 mph /  14.5 km/h 7.0 mph /  11.3 km/h 49 % 0.00 in /  0 mm
15:24 66.5 °F /  19.2 °C 46.7 °F /  8.2 °C 29.84 in /  1010.4 hPa NNW 7.0 mph /  11.3 km/h 5.3 mph /  8.5 km/h 49 % 0.00 in /  0 mm
15:29 66.7 °F /  19.3 °C 46.4 °F /  8 °C 29.84 in /  1010.4 hPa NNW 6.0 mph /  9.7 km/h 5.9 mph /  9.5 km/h 48 % 0.00 in /  0 mm
15:34 66.7 °F /  19.3 °C 46.4 °F /  8 °C 29.83 in /  1010 hPa North 6.9 mph /  11.1 km/h 4.4 mph /  7.1 km/h 48 % 0.00 in /  0 mm
15:39 66.7 °F /  19.3 °C 45.8 °F /  7.7 °C 29.83 in /  1010 hPa NNW 9.2 mph /  14.8 km/h 3.7 mph /  6 km/h 47 % 0.00 in /  0 mm
15:44 66.7 °F /  19.3 °C 46.9 °F /  8.3 °C 29.83 in /  1010 hPa NNW 5.0 mph /  8 km/h 3.3 mph /  5.3 km/h 49 % 0.00 in /  0 mm
15:49 66.6 °F /  19.2 °C 46.8 °F /  8.2 °C 29.82 in /  1009.7 hPa NNW 9.2 mph /  14.8 km/h 5.9 mph /  9.5 km/h 49 % 0.00 in /  0 mm
15:54 66.8 °F /  19.3 °C 47.0 °F /  8.3 °C 29.83 in /  1010 hPa NNW 8.1 mph /  13 km/h 4.5 mph /  7.2 km/h 49 % 0.00 in /  0 mm
15:59 66.8 °F /  19.3 °C 47.0 °F /  8.3 °C 29.82 in /  1009.7 hPa NNW 6.9 mph /  11.1 km/h 3.8 mph /  6.1 km/h 49 % 0.00 in /  0 mm
16:04 66.9 °F /  19.4 °C 46.6 °F /  8.1 °C 29.82 in /  1009.7 hPa North 7.0 mph /  11.3 km/h 4.5 mph /  7.2 km/h 48 % 0.00 in /  0 mm
16:09 67.0 °F /  19.4 °C 47.2 °F /  8.4 °C 29.83 in /  1010 hPa NNW 6.9 mph /  11.1 km/h 3.1 mph /  5 km/h 49 % 0.00 in /  0 mm
16:14 67.0 °F /  19.4 °C 46.7 °F /  8.2 °C 29.83 in /  1010 hPa NNW 8.1 mph /  13 km/h 5.1 mph /  8.2 km/h 48 % 0.00 in /  0 mm
16:19 67.0 °F /  19.4 °C 46.7 °F /  8.2 °C 29.83 in /  1010 hPa North 6.0 mph /  9.7 km/h 5.2 mph /  8.4 km/h 48 % 0.00 in /  0 mm
16:24 66.8 °F /  19.3 °C 46.5 °F /  8.1 °C 29.83 in /  1010 hPa NNW 4.0 mph /  6.4 km/h 2.2 mph /  3.5 km/h 48 % 0.00 in /  0 mm
16:29 66.7 °F /  19.3 °C 45.8 °F /  7.7 °C 29.83 in /  1010 hPa NNW 5.8 mph /  9.3 km/h 2.7 mph /  4.3 km/h 47 % 0.00 in /  0 mm
16:34 66.7 °F /  19.3 °C 45.8 °F /  7.7 °C 29.82 in /  1009.7 hPa NNW 6.9 mph /  11.1 km/h 4.2 mph /  6.8 km/h 47 % 0.00 in /  0 mm
16:39 66.8 °F /  19.3 °C 45.9 °F /  7.7 °C 29.81 in /  1009.4 hPa North 6.0 mph /  9.7 km/h 4.0 mph /  6.4 km/h 47 % 0.00 in /  0 mm
16:44 66.8 °F /  19.3 °C 46.5 °F /  8.1 °C 29.79 in /  1008.7 hPa North 11.5 mph /  18.5 km/h 6.3 mph /  10.1 km/h 48 % 0.00 in /  0 mm
16:49 66.7 °F /  19.3 °C 46.4 °F /  8 °C 29.80 in /  1009 hPa North 8.1 mph /  13 km/h 3.9 mph /  6.3 km/h 48 % 0.00 in /  0 mm
16:54 66.7 °F /  19.3 °C 45.8 °F /  7.7 °C 29.81 in /  1009.4 hPa North 6.0 mph /  9.7 km/h 3.8 mph /  6.1 km/h 47 % 0.00 in /  0 mm
16:59 66.6 °F /  19.2 °C 45.2 °F /  7.3 °C 29.81 in /  1009.4 hPa NNW 8.1 mph /  13 km/h 4.4 mph /  7.1 km/h 46 % 0.00 in /  0 mm
17:04 66.4 °F /  19.1 °C 46.1 °F /  7.8 °C 29.81 in /  1009.4 hPa NNW 4.0 mph /  6.4 km/h 4.6 mph /  7.4 km/h 48 % 0.00 in /  0 mm
17:09 66.1 °F /  18.9 °C 45.8 °F /  7.7 °C 29.81 in /  1009.4 hPa NW 10.4 mph /  16.7 km/h 7.6 mph /  12.2 km/h 48 % 0.00 in /  0 mm
17:14 65.7 °F /  18.7 °C 46.0 °F /  7.8 °C 29.82 in /  1009.7 hPa North 11.5 mph /  18.5 km/h 7.0 mph /  11.3 km/h 49 % 0.00 in /  0 mm
17:19 65.3 °F /  18.5 °C 46.2 °F /  7.9 °C 29.82 in /  1009.7 hPa NW 9.2 mph /  14.8 km/h 5.3 mph /  8.5 km/h 50 % 0.00 in /  0 mm
17:24 65.1 °F /  18.4 °C 46.0 °F /  7.8 °C 29.81 in /  1009.4 hPa North 4.6 mph /  7.4 km/h 2.4 mph /  3.9 km/h 50 % 0.00 in /  0 mm
17:29 65.1 °F /  18.4 °C 46.5 °F /  8.1 °C 29.81 in /  1009.4 hPa NW 4.0 mph /  6.4 km/h 2.6 mph /  4.2 km/h 51 % 0.00 in /  0 mm
17:34 65.0 °F /  18.3 °C 46.9 °F /  8.3 °C 29.81 in /  1009.4 hPa NW 5.0 mph /  8 km/h 3.2 mph /  5.1 km/h 52 % 0.00 in /  0 mm
17:39 65.0 °F /  18.3 °C 47.4 °F /  8.6 °C 29.82 in /  1009.7 hPa NW 4.6 mph /  7.4 km/h 3.0 mph /  4.8 km/h 53 % 0.00 in /  0 mm
17:44 64.9 °F /  18.3 °C 47.4 °F /  8.6 °C 29.82 in /  1009.7 hPa NW 3.5 mph /  5.6 km/h 2.6 mph /  4.2 km/h 53 % 0.00 in /  0 mm
17:49 64.8 °F /  18.2 °C 48.2 °F /  9 °C 29.82 in /  1009.7 hPa NW 3.5 mph /  5.6 km/h 1.3 mph /  2.1 km/h 55 % 0.00 in /  0 mm
17:54 64.8 °F /  18.2 °C 48.7 °F /  9.3 °C 29.82 in /  1009.7 hPa North 3.5 mph /  5.6 km/h 0.2 mph /  0.3 km/h 56 % 0.00 in /  0 mm
17:59 64.8 °F /  18.2 °C 48.2 °F /  9 °C 29.81 in /  1009.4 hPa NW 2.3 mph /  3.7 km/h 0.6 mph /  1 km/h 55 % 0.00 in /  0 mm
18:04 64.9 °F /  18.3 °C 48.3 °F /  9.1 °C 29.80 in /  1009 hPa NW 4.0 mph /  6.4 km/h 3.0 mph /  4.8 km/h 55 % 0.00 in /  0 mm
18:09 65.1 °F /  18.4 °C 48.0 °F /  8.9 °C 29.80 in /  1009 hPa NW 4.6 mph /  7.4 km/h 2.5 mph /  4 km/h 54 % 0.00 in /  0 mm
18:14 65.3 °F /  18.5 °C 47.7 °F /  8.7 °C 29.80 in /  1009 hPa North 3.5 mph /  5.6 km/h 2.8 mph /  4.5 km/h 53 % 0.00 in /  0 mm
18:19 65.5 °F /  18.6 °C 47.9 °F /  8.8 °C 29.80 in /  1009 hPa NW 6.9 mph /  11.1 km/h 4.9 mph /  7.9 km/h 53 % 0.00 in /  0 mm
18:24 65.6 °F /  18.7 °C 48.0 °F /  8.9 °C 29.79 in /  1008.7 hPa NW 5.0 mph /  8 km/h 3.7 mph /  6 km/h 53 % 0.00 in /  0 mm
18:29 65.7 °F /  18.7 °C 47.6 °F /  8.7 °C 29.79 in /  1008.7 hPa NW 9.2 mph /  14.8 km/h 5.0 mph /  8 km/h 52 % 0.00 in /  0 mm
18:34 65.8 °F /  18.8 °C 46.6 °F /  8.1 °C 29.79 in /  1008.7 hPa NW 6.9 mph /  11.1 km/h 4.5 mph /  7.2 km/h 50 % 0.00 in /  0 mm
18:39 65.9 °F /  18.8 °C 46.7 °F /  8.2 °C 29.78 in /  1008.4 hPa NW 6.9 mph /  11.1 km/h 4.2 mph /  6.8 km/h 50 % 0.00 in /  0 mm
18:44 65.8 °F /  18.8 °C 46.1 °F /  7.8 °C 29.78 in /  1008.4 hPa NNW 5.8 mph /  9.3 km/h 3.7 mph /  6 km/h 49 % 0.00 in /  0 mm
18:49 65.8 °F /  18.8 °C 46.1 °F /  7.8 °C 29.78 in /  1008.4 hPa North 10.4 mph /  16.7 km/h 4.3 mph /  6.9 km/h 49 % 0.00 in /  0 mm
18:54 65.8 °F /  18.8 °C 46.6 °F /  8.1 °C 29.78 in /  1008.4 hPa North 4.6 mph /  7.4 km/h 2.7 mph /  4.3 km/h 50 % 0.00 in /  0 mm
18:59 65.8 °F /  18.8 °C 46.6 °F /  8.1 °C 29.79 in /  1008.7 hPa NNW 4.6 mph /  7.4 km/h 3.3 mph /  5.3 km/h 50 % 0.00 in /  0 mm
19:04 65.8 °F /  18.8 °C 46.1 °F /  7.8 °C 29.79 in /  1008.7 hPa North 8.1 mph /  13 km/h 4.3 mph /  6.9 km/h 49 % 0.00 in /  0 mm
19:09 65.7 °F /  18.7 °C 46.0 °F /  7.8 °C 29.79 in /  1008.7 hPa NNW 4.6 mph /  7.4 km/h 4.0 mph /  6.4 km/h 49 % 0.00 in /  0 mm
19:14 65.5 °F /  18.6 °C 46.4 °F /  8 °C 29.79 in /  1008.7 hPa NNW 6.0 mph /  9.7 km/h 2.6 mph /  4.2 km/h 50 % 0.00 in /  0 mm
19:19 65.3 °F /  18.5 °C 46.2 °F /  7.9 °C 29.79 in /  1008.7 hPa North 4.6 mph /  7.4 km/h 4.4 mph /  7.1 km/h 50 % 0.00 in /  0 mm
19:24 65.1 °F /  18.4 °C 46.5 °F /  8.1 °C 29.80 in /  1009 hPa North 6.9 mph /  11.1 km/h 2.9 mph /  4.7 km/h 51 % 0.00 in /  0 mm
19:29 64.9 °F /  18.3 °C 46.3 °F /  7.9 °C 29.80 in /  1009 hPa North 5.8 mph /  9.3 km/h 3.7 mph /  6 km/h 51 % 0.00 in /  0 mm
19:34 64.8 °F /  18.2 °C 46.2 °F /  7.9 °C 29.80 in /  1009 hPa North 8.0 mph /  12.9 km/h 4.5 mph /  7.2 km/h 51 % 0.00 in /  0 mm
19:39 64.7 °F /  18.2 °C 46.1 °F /  7.8 °C 29.80 in /  1009 hPa North 4.6 mph /  7.4 km/h 2.5 mph /  4 km/h 51 % 0.00 in /  0 mm
19:44 64.6 °F /  18.1 °C 46.1 °F /  7.8 °C 29.80 in /  1009 hPa North 6.9 mph /  11.1 km/h 2.9 mph /  4.7 km/h 51 % 0.00 in /  0 mm
19:49 64.5 °F /  18.1 °C 46.5 °F /  8.1 °C 29.80 in /  1009 hPa North 3.5 mph /  5.6 km/h 2.7 mph /  4.3 km/h 52 % 0.00 in /  0 mm
19:54 64.4 °F /  18 °C 46.4 °F /  8 °C 29.80 in /  1009 hPa North 3.5 mph /  5.6 km/h 1.9 mph /  3.1 km/h 52 % 0.00 in /  0 mm
19:59 64.3 °F /  17.9 °C 45.8 °F /  7.7 °C 29.80 in /  1009 hPa North 4.6 mph /  7.4 km/h 2.4 mph /  3.9 km/h 51 % 0.00 in /  0 mm
20:04 64.2 °F /  17.9 °C 46.2 °F /  7.9 °C 29.80 in /  1009 hPa North 3.5 mph /  5.6 km/h 2.4 mph /  3.9 km/h 52 % 0.00 in /  0 mm
20:09 64.1 °F /  17.8 °C 46.1 °F /  7.8 °C 29.80 in /  1009 hPa North 2.3 mph /  3.7 km/h 1.3 mph /  2.1 km/h 52 % 0.00 in /  0 mm
20:14 64.0 °F /  17.8 °C 46.0 °F /  7.8 °C 29.79 in /  1008.7 hPa North 1.2 mph /  1.9 km/h   52 % 0.00 in /  0 mm
20:19 63.9 °F /  17.7 °C 46.4 °F /  8 °C 29.79 in /  1008.7 hPa Calm     53 % 0.00 in /  0 mm
20:24 63.6 °F /  17.6 °C 46.6 °F /  8.1 °C 29.79 in /  1008.7 hPa North 3.5 mph /  5.6 km/h 2.5 mph /  4 km/h 54 % 0.00 in /  0 mm
20:29 63.3 °F /  17.4 °C 46.4 °F /  8 °C 29.79 in /  1008.7 hPa North 2.3 mph /  3.7 km/h 1.5 mph /  2.4 km/h 54 % 0.00 in /  0 mm
20:34 63.1 °F /  17.3 °C 46.7 °F /  8.2 °C 29.79 in /  1008.7 hPa Calm     55 % 0.00 in /  0 mm
20:39 62.9 °F /  17.2 °C 47.0 °F /  8.3 °C 29.79 in /  1008.7 hPa Calm     56 % 0.00 in /  0 mm
20:44 62.6 °F /  17 °C 46.7 °F /  8.2 °C 29.78 in /  1008.4 hPa North 3.5 mph /  5.6 km/h 1.9 mph /  3.1 km/h 56 % 0.00 in /  0 mm
20:49 62.4 °F /  16.9 °C 46.5 °F /  8.1 °C 29.78 in /  1008.4 hPa North 4.0 mph /  6.4 km/h 2.1 mph /  3.4 km/h 56 % 0.00 in /  0 mm
20:54 62.2 °F /  16.8 °C 46.3 °F /  7.9 °C 29.78 in /  1008.4 hPa North 2.3 mph /  3.7 km/h 0.7 mph /  1.1 km/h 56 % 0.00 in /  0 mm
20:59 62.1 °F /  16.7 °C 46.2 °F /  7.9 °C 29.78 in /  1008.4 hPa North 2.3 mph /  3.7 km/h 1.5 mph /  2.4 km/h 56 % 0.00 in /  0 mm
21:04 62.0 °F /  16.7 °C 46.1 °F /  7.8 °C 29.78 in /  1008.4 hPa North 3.5 mph /  5.6 km/h 1.1 mph /  1.8 km/h 56 % 0.00 in /  0 mm
21:09 62.0 °F /  16.7 °C 46.6 °F /  8.1 °C 29.78 in /  1008.4 hPa North 3.5 mph /  5.6 km/h 1.4 mph /  2.3 km/h 57 % 0.00 in /  0 mm
21:14 61.9 °F /  16.6 °C 46.5 °F /  8.1 °C 29.77 in /  1008 hPa Calm     57 % 0.00 in /  0 mm
21:19 61.7 °F /  16.5 °C 46.8 °F /  8.2 °C 29.78 in /  1008.4 hPa North 2.3 mph /  3.7 km/h 0.1 mph /  0.2 km/h 58 % 0.00 in /  0 mm
21:24 61.6 °F /  16.4 °C 46.7 °F /  8.2 °C 29.78 in /  1008.4 hPa North 2.3 mph /  3.7 km/h 1.0 mph /  1.6 km/h 58 % 0.00 in /  0 mm
21:29 61.5 °F /  16.4 °C 46.6 °F /  8.1 °C 29.78 in /  1008.4 hPa North 2.3 mph /  3.7 km/h 1.3 mph /  2.1 km/h 58 % 0.00 in /  0 mm
21:34 61.5 °F /  16.4 °C 46.1 °F /  7.8 °C 29.78 in /  1008.4 hPa North 2.3 mph /  3.7 km/h 1.3 mph /  2.1 km/h 57 % 0.00 in /  0 mm
21:39 61.4 °F /  16.3 °C 46.0 °F /  7.8 °C 29.78 in /  1008.4 hPa North 3.5 mph /  5.6 km/h 1.2 mph /  1.9 km/h 57 % 0.00 in /  0 mm
21:44 61.4 °F /  16.3 °C 46.0 °F /  7.8 °C 29.78 in /  1008.4 hPa North 2.3 mph /  3.7 km/h 0.3 mph /  0.5 km/h 57 % 0.00 in /  0 mm
21:49 61.3 °F /  16.3 °C 45.9 °F /  7.7 °C 29.78 in /  1008.4 hPa North 2.3 mph /  3.7 km/h   57 % 0.00 in /  0 mm
21:54 61.3 °F /  16.3 °C 45.9 °F /  7.7 °C 29.78 in /  1008.4 hPa Calm     57 % 0.00 in /  0 mm
21:59 61.2 °F /  16.2 °C 45.8 °F /  7.7 °C 29.78 in /  1008.4 hPa North 2.3 mph /  3.7 km/h 0.6 mph /  1 km/h 57 % 0.00 in /  0 mm
22:04 61.1 °F /  16.2 °C 46.2 °F /  7.9 °C 29.78 in /  1008.4 hPa Calm     58 % 0.00 in /  0 mm
22:09 61.0 °F /  16.1 °C 46.1 °F /  7.8 °C 29.78 in /  1008.4 hPa Calm   0.4 mph /  0.6 km/h 58 % 0.00 in /  0 mm
22:14 61.0 °F /  16.1 °C 45.7 °F /  7.6 °C 29.78 in /  1008.4 hPa North 1.2 mph /  1.9 km/h 0.2 mph /  0.3 km/h 57 % 0.00 in /  0 mm
22:19 61.1 °F /  16.2 °C 45.7 °F /  7.6 °C 29.78 in /  1008.4 hPa North 1.2 mph /  1.9 km/h   57 % 0.00 in /  0 mm
22:24 61.1 °F /  16.2 °C 46.2 °F /  7.9 °C 29.77 in /  1008 hPa Calm     58 % 0.00 in /  0 mm
22:29 61.1 °F /  16.2 °C 47.5 °F /  8.6 °C 29.77 in /  1008 hPa Calm     61 % 0.00 in /  0 mm
22:34 61.0 °F /  16.1 °C 47.4 °F /  8.6 °C 29.78 in /  1008.4 hPa Calm     61 % 0.00 in /  0 mm
22:39 61.0 °F /  16.1 °C 46.1 °F /  7.8 °C 29.79 in /  1008.7 hPa North 3.5 mph /  5.6 km/h 3.6 mph /  5.8 km/h 58 % 0.00 in /  0 mm
22:44 61.2 °F /  16.2 °C 46.3 °F /  7.9 °C 29.80 in /  1009 hPa North 5.0 mph /  8 km/h 3.9 mph /  6.3 km/h 58 % 0.00 in /  0 mm
22:49 61.3 °F /  16.3 °C 46.4 °F /  8 °C 29.80 in /  1009 hPa North 3.5 mph /  5.6 km/h 4.0 mph /  6.4 km/h 58 % 0.00 in /  0 mm
22:54 61.5 °F /  16.4 °C 46.6 °F /  8.1 °C 29.80 in /  1009 hPa North 3.5 mph /  5.6 km/h 2.6 mph /  4.2 km/h 58 % 0.00 in /  0 mm
22:59 61.6 °F /  16.4 °C 46.7 °F /  8.2 °C 29.80 in /  1009 hPa North 3.5 mph /  5.6 km/h 3.0 mph /  4.8 km/h 58 % 0.00 in /  0 mm
23:04 61.7 °F /  16.5 °C 46.8 °F /  8.2 °C 29.80 in /  1009 hPa Calm   0.3 mph /  0.5 km/h 58 % 0.00 in /  0 mm
23:09 61.7 °F /  16.5 °C 47.7 °F /  8.7 °C 29.79 in /  1008.7 hPa North 3.5 mph /  5.6 km/h 2.3 mph /  3.7 km/h 60 % 0.00 in /  0 mm
23:14 61.4 °F /  16.3 °C 48.7 °F /  9.3 °C 29.79 in /  1008.7 hPa North 1.2 mph /  1.9 km/h   63 % 0.00 in /  0 mm
23:19 60.9 °F /  16.1 °C 48.6 °F /  9.2 °C 29.79 in /  1008.7 hPa Calm     64 % 0.00 in /  0 mm
23:24 60.4 °F /  15.8 °C 49.0 °F /  9.4 °C 29.80 in /  1009 hPa North 3.5 mph /  5.6 km/h 3.0 mph /  4.8 km/h 66 % 0.00 in /  0 mm
23:29 60.3 °F /  15.7 °C 48.9 °F /  9.4 °C 29.79 in /  1008.7 hPa North 3.5 mph /  5.6 km/h 2.1 mph /  3.4 km/h 66 % 0.00 in /  0 mm
23:34 60.3 °F /  15.7 °C 48.5 °F /  9.2 °C 29.79 in /  1008.7 hPa North 2.3 mph /  3.7 km/h 0.2 mph /  0.3 km/h 65 % 0.00 in /  0 mm
23:39 60.2 °F /  15.7 °C 48.4 °F /  9.1 °C 29.79 in /  1008.7 hPa North 3.5 mph /  5.6 km/h 2.0 mph /  3.2 km/h 65 % 0.00 in /  0 mm
23:44 60.2 °F /  15.7 °C 48.4 °F /  9.1 °C 29.78 in /  1008.4 hPa Calm     65 % 0.00 in /  0 mm
23:48 60.2 °F /  15.7 °C 48.8 °F /  9.3 °C 29.79 in /  1008.7 hPa North 1.2 mph /  1.9 km/h 0.7 mph /  1.1 km/h 66 % 0.00 in /  0 mm
23:59 59.8 °F /  15.4 °C 49.2 °F /  9.6 °C 29.79 in /  1008.7 hPa North 1.2 mph /  1.9 km/h 1.2 mph /  1.9 km/h 68 % 0.00 in /  0 mm
Ararat Weather
Compliments of Weather Underground - 2.25 mb
Click here to send mail.


ABOUT

Live weather data from Ararat, Victoria, Australia, 3377
Data uploaded from Cumulus every 5 minutes to Weather Underground.
This site then downloads the raw data for formatting and display.
Metric and imperial data can be displayed. Graphs and historical data available.
Includes Sun and Moon times and rain image live from BOM.

Check out Ararat Weather on Facebook, Twitter and Google +

Help support ongoing costs by checking out the ads





Follow @AraratWeather